Time;durP1;ratioP1;P1;durP2;ratioP2;P2;SDS_P1;SDS_P2;PMS_P1;PMS_P2;Temp;Humidity;BMP_temperature;BMP_pressure;BME280_temperature;BME280_humidity;BME280_pressure;Samples;Min_cycle;Max_cycle;Signal;HPM_P1;HPM_P2
2023/03/20 00:01:15;;;;;;;2.95;1.80;;;;;;;21.06;45.85;101917.75;5030976;27;98222;-75
2023/03/20 00:03:42;;;;;;;2.92;2.05;;;;;;;21.04;45.92;101917.03;5026454;27;98004;-75
2023/03/20 00:06:20;;;;;;;2.50;2.10;;;;;;;21.07;46.25;101914.00;5030746;27;97147;-75
2023/03/20 00:08:49;;;;;;;2.63;1.83;;;;;;;21.07;45.76;101918.59;5027153;27;96746;-75
2023/03/20 00:11:40;;;;;;;2.92;1.92;;;;;;;21.05;46.15;101909.69;5037521;27;96586;-75
2023/03/20 00:14:12;;;;;;;2.75;1.90;;;;;;;21.05;45.85;101905.09;5039801;27;96910;-75
2023/03/20 00:16:42;;;;;;;2.45;1.80;;;;;;;21.03;46.04;101909.00;5034178;27;96627;-75
2023/03/20 00:19:17;;;;;;;3.13;1.70;;;;;;;21.03;46.10;101901.66;5012136;27;97031;-75
2023/03/20 00:21:45;;;;;;;2.25;1.73;;;;;;;21.04;46.08;101897.06;5042683;27;97075;-75
2023/03/20 00:24:13;;;;;;;1.92;1.40;;;;;;;21.01;46.01;101898.22;5037665;27;97526;-75
2023/03/20 00:26:40;;;;;;;2.30;1.55;;;;;;;21.03;46.23;101898.94;5039409;27;96659;-75
2023/03/20 00:29:17;;;;;;;2.55;1.85;;;;;;;21.04;46.15;101895.19;5025884;27;96794;-75
2023/03/20 00:31:43;;;;;;;2.22;1.80;;;;;;;21.03;45.98;101901.66;5034618;27;96773;-75
2023/03/20 00:34:13;;;;;;;2.38;1.73;;;;;;;21.05;46.11;101899.63;5041780;27;96770;-75
2023/03/20 00:36:40;;;;;;;2.80;1.65;;;;;;;21.04;45.80;101906.13;5038935;27;98167;-75
2023/03/20 00:39:06;;;;;;;2.53;1.98;;;;;;;21.00;45.75;101888.31;5030744;27;97115;-75
2023/03/20 00:41:43;;;;;;;1.80;1.50;;;;;;;20.98;46.02;101893.06;5043539;27;96850;-75
2023/03/20 00:44:22;;;;;;;2.22;1.75;;;;;;;21.00;45.94;101888.31;5028528;27;100571;-75
2023/03/20 00:46:52;;;;;;;1.80;1.60;;;;;;;21.02;45.98;101886.28;5047451;27;96747;-76
2023/03/20 00:49:23;;;;;;;2.17;1.80;;;;;;;21.02;45.57;101885.41;5040710;27;96855;-75
2023/03/20 00:51:50;;;;;;;2.17;1.60;;;;;;;21.03;45.77;101881.69;5029287;27;98479;-75
2023/03/20 00:54:17;;;;;;;1.70;1.48;;;;;;;21.03;45.60;101873.50;5021968;27;100048;-75
2023/03/20 00:57:06;;;;;;;1.75;1.50;;;;;;;21.03;45.77;101868.03;5021402;27;96986;-75
2023/03/20 00:59:37;;;;;;;1.98;1.83;;;;;;;20.99;45.83;101870.19;5025109;27;96854;-75
2023/03/20 01:02:04;;;;;;;2.08;1.45;;;;;;;20.99;45.75;101872.06;5023934;27;96983;-75
2023/03/20 01:04:41;;;;;;;1.77;1.38;;;;;;;21.00;46.08;101869.19;5030667;27;98132;-75
2023/03/20 01:07:12;;;;;;;1.98;1.60;;;;;;;21.00;45.96;101868.31;5026674;27;97887;-75
2023/03/20 01:09:39;;;;;;;1.75;1.42;;;;;;;20.98;45.96;101873.09;5007968;27;96797;-75
2023/03/20 01:12:06;;;;;;;1.63;1.35;;;;;;;20.99;45.69;101867.47;5026843;27;97042;-75
2023/03/20 01:14:33;;;;;;;1.80;1.40;;;;;;;21.00;45.73;101862.88;5024252;27;99527;-75
2023/03/20 01:17:00;;;;;;;2.22;1.45;;;;;;;20.98;45.71;101875.81;5045545;27;96751;-75
2023/03/20 01:19:26;;;;;;;2.30;1.52;;;;;;;20.98;45.48;101889.47;5032278;27;97218;-75
2023/03/20 01:21:53;;;;;;;2.60;1.70;;;;;;;20.98;45.93;101895.78;5026022;27;96900;-75
2023/03/20 01:24:20;;;;;;;1.73;1.38;;;;;;;20.97;45.89;101904.13;5033170;27;101228;-75
2023/03/20 01:26:46;;;;;;;1.73;1.45;;;;;;;20.96;45.81;101913.34;5037828;27;97388;-75
2023/03/20 01:29:20;;;;;;;1.25;1.15;;;;;;;20.97;45.89;101912.31;5043879;27;96982;-75
2023/03/20 01:31:48;;;;;;;1.45;1.33;;;;;;;20.97;45.77;101901.41;5027930;27;97915;-75
2023/03/20 01:34:18;;;;;;;1.13;1.02;;;;;;;20.97;46.02;101902.25;5030170;27;98906;-75
2023/03/20 01:36:49;;;;;;;2.17;1.60;;;;;;;21.00;46.00;101901.09;5030266;27;99078;-75
2023/03/20 01:39:17;;;;;;;1.77;1.42;;;;;;;20.97;45.82;101913.19;5044380;27;96941;-75
2023/03/20 01:41:45;;;;;;;1.48;1.38;;;;;;;20.96;46.04;101907.88;5049283;27;96805;-74
2023/03/20 01:44:42;;;;;;;1.60;1.50;;;;;;;20.94;45.94;101914.34;5027844;27;100686;-75
2023/03/20 01:47:15;;;;;;;1.92;1.40;;;;;;;20.91;45.55;101919.25;5014434;27;97413;-75
2023/03/20 01:50:17;;;;;;;2.25;1.30;;;;;;;20.93;45.63;101909.03;5040669;27;96766;-75
2023/03/20 01:52:46;;;;;;;2.22;1.50;;;;;;;20.93;45.69;101909.91;5011680;27;97218;-75
2023/03/20 01:55:13;;;;;;;1.80;1.33;;;;;;;20.94;45.97;101908.88;5021201;27;100485;-75
2023/03/20 01:57:45;;;;;;;1.58;1.38;;;;;;;20.94;45.83;101914.34;5022178;27;100552;-75
2023/03/20 02:00:15;;;;;;;1.60;1.20;;;;;;;20.92;45.79;101912.78;5025909;27;97428;-75
2023/03/20 02:02:45;;;;;;;1.45;1.33;;;;;;;20.90;45.54;101909.34;5046867;27;96616;-75
2023/03/20 02:05:27;;;;;;;1.67;1.33;;;;;;;20.91;45.55;101911.91;5024861;27;97046;-75
2023/03/20 02:08:11;;;;;;;1.80;1.38;;;;;;;20.91;45.83;101901.00;5030345;27;96570;-75
2023/03/20 02:10:39;;;;;;;2.13;1.25;;;;;;;20.92;45.74;101899.13;5022885;27;97012;-75
2023/03/20 02:13:23;;;;;;;1.50;1.20;;;;;;;20.92;45.53;101889.06;5032762;27;96913;-75
2023/03/20 02:16:00;;;;;;;2.72;1.20;;;;;;;20.90;45.61;101888.34;5015153;27;97173;-75
2023/03/20 02:18:50;;;;;;;2.28;1.20;;;;;;;20.89;45.84;101894.81;5037057;27;97106;-75
2023/03/20 02:21:55;;;;;;;1.90;1.15;;;;;;;20.90;45.40;101902.00;5031386;27;98506;-75
2023/03/20 02:24:54;;;;;;;1.20;1.10;;;;;;;20.91;45.69;101900.13;5030950;27;97032;-75
2023/03/20 02:27:33;;;;;;;1.40;1.20;;;;;;;20.93;45.55;101882.59;4996401;27;98151;-75
2023/03/20 02:30:19;;;;;;;1.38;1.27;;;;;;;20.93;45.47;101889.94;5040477;27;98049;-75
2023/03/20 02:33:25;;;;;;;1.20;1.10;;;;;;;20.93;45.45;101890.78;5021541;27;97161;-75
2023/03/20 02:36:25;;;;;;;1.58;1.17;;;;;;;20.94;45.71;101905.28;5008438;27;96732;-75
2023/03/20 02:39:01;;;;;;;1.75;1.27;;;;;;;20.92;45.45;101910.06;5028673;27;99487;-76
2023/03/20 02:41:32;;;;;;;1.45;1.35;;;;;;;20.93;45.44;101912.63;5020057;27;99276;-75
2023/03/20 02:44:11;;;;;;;1.45;1.02;;;;;;;20.95;45.47;101917.94;5026519;27;97102;-75
2023/03/20 02:46:57;;;;;;;1.08;0.98;;;;;;;20.96;45.28;101914.19;5031412;27;96884;-75
2023/03/20 02:49:50;;;;;;;1.50;1.20;;;;;;;20.97;45.17;101918.66;5006849;27;98509;-75
2023/03/20 02:52:48;;;;;;;1.80;1.17;;;;;;;20.96;45.50;101916.94;5029104;27;98826;-75
2023/03/20 02:55:18;;;;;;;1.15;0.95;;;;;;;20.97;45.20;101909.59;5047127;27;96734;-75
2023/03/20 02:58:11;;;;;;;1.73;1.30;;;;;;;20.96;45.11;101908.75;5026257;27;96792;-75
2023/03/20 03:00:49;;;;;;;1.23;1.05;;;;;;;20.97;45.32;101894.06;5032028;27;97932;-75
2023/03/20 03:03:34;;;;;;;1.30;1.10;;;;;;;20.99;45.26;101883.00;5044757;27;96750;-75
2023/03/20 03:06:05;;;;;;;;;;;;;;;21.00;45.17;101890.19;5031378;27;96734;-75
2023/03/20 03:08:38;;;;;;;1.30;1.10;;;;;;;21.01;45.34;101886.44;5026244;27;97281;-75
2023/03/20 03:11:07;;;;;;;1.65;1.10;;;;;;;21.01;45.05;101889.16;5027100;27;98613;-75
2023/03/20 03:13:43;;;;;;;2.72;1.10;;;;;;;21.01;45.12;101884.56;5015805;27;97829;-75
2023/03/20 03:16:19;;;;;;;1.13;1.00;;;;;;;21.01;45.12;101889.16;5031614;27;96881;-75
2023/03/20 03:18:53;;;;;;;1.90;1.25;;;;;;;21.01;45.30;101890.03;5013417;27;96976;-75
2023/03/20 03:21:21;;;;;;;1.50;1.00;;;;;;;21.00;45.20;101884.72;5014949;27;98556;-76
2023/03/20 03:23:48;;;;;;;1.55;1.10;;;;;;;21.01;45.08;101892.75;5042082;27;97341;-75
2023/03/20 03:26:23;;;;;;;1.67;1.23;;;;;;;21.01;45.18;101887.28;5046688;27;96788;-75
2023/03/20 03:28:58;;;;;;;1.25;1.15;;;;;;;20.99;45.33;101867.47;5026355;27;96855;-75
2023/03/20 03:31:26;;;;;;;1.73;1.13;;;;;;;21.00;45.03;101873.78;5038762;27;97133;-75
2023/03/20 03:33:56;;;;;;;1.33;1.00;;;;;;;21.01;45.17;101864.59;5029243;27;99425;-75
2023/03/20 03:36:44;;;;;;;1.55;1.27;;;;;;;21.03;44.99;101857.09;5029026;27;97286;-75
2023/03/20 03:39:33;;;;;;;1.42;1.10;;;;;;;21.01;44.75;101843.59;5026420;27;97012;-75
2023/03/20 03:42:13;;;;;;;1.20;0.90;;;;;;;21.00;45.10;101841.88;5043181;27;96728;-75
2023/03/20 03:45:12;;;;;;;1.27;0.88;;;;;;;20.98;45.11;101838.44;5037469;27;96667;-75
2023/03/20 03:47:45;;;;;;;1.60;1.10;;;;;;;21.00;45.09;101838.28;5028117;27;96737;-75
2023/03/20 03:50:27;;;;;;;1.50;1.00;;;;;;;21.00;45.07;101846.47;5028567;27;96924;-75
2023/03/20 03:53:08;;;;;;;1.48;1.00;;;;;;;21.00;44.68;101844.59;5003537;27;99187;-75
2023/03/20 03:55:42;;;;;;;1.30;1.13;;;;;;;21.03;44.90;101846.19;5037913;27;96748;-75
2023/03/20 03:58:17;;;;;;;1.23;0.90;;;;;;;21.02;45.04;101839.00;5024303;27;96855;-75
2023/03/20 04:00:49;;;;;;;1.00;0.90;;;;;;;21.02;45.09;101831.66;5016490;27;96825;-75
2023/03/20 04:03:19;;;;;;;1.20;1.00;;;;;;;21.02;45.02;101836.25;5046523;27;97673;-74
2023/03/20 04:05:46;;;;;;;1.08;0.93;;;;;;;21.01;44.80;101834.53;5024744;27;99081;-75
2023/03/20 04:08:13;;;;;;;1.23;0.80;;;;;;;21.01;44.80;101837.28;5045644;27;96992;-75
2023/03/20 04:10:40;;;;;;;1.67;1.10;;;;;;;21.00;44.59;101841.88;5024137;27;97168;-75
2023/03/20 04:13:07;;;;;;;1.30;1.10;;;;;;;21.02;44.93;101839.00;5022171;27;99675;-75
2023/03/20 04:15:34;;;;;;;1.23;1.10;;;;;;;21.02;44.75;101844.47;5017723;27;97646;-75
2023/03/20 04:18:02;;;;;;;1.35;0.95;;;;;;;21.01;44.77;101843.59;5028575;27;96914;-75
2023/03/20 04:20:29;;;;;;;1.30;1.00;;;;;;;21.01;44.80;101840.88;5025885;27;96950;-75
2023/03/20 04:22:56;;;;;;;1.02;0.93;;;;;;;21.01;45.06;101837.28;5029728;27;100909;-75
2023/03/20 04:25:25;;;;;;;1.00;0.90;;;;;;;21.01;44.64;101840.88;5043864;27;96671;-75
2023/03/20 04:27:54;;;;;;;1.45;1.02;;;;;;;21.01;45.08;101837.28;5027590;27;98770;-75
2023/03/20 04:30:39;;;;;;;1.30;0.80;;;;;;;21.01;44.91;101837.28;5028775;27;97131;-75
2023/03/20 04:33:16;;;;;;;1.08;0.82;;;;;;;21.02;44.85;101830.81;5040620;27;97394;-75
2023/03/20 04:35:59;;;;;;;1.08;0.95;;;;;;;21.00;44.79;101820.03;5027939;27;96692;-75
2023/03/20 04:38:26;;;;;;;1.30;1.05;;;;;;;21.00;44.78;101820.03;5031435;27;97131;-75
2023/03/20 04:40:53;;;;;;;1.05;0.85;;;;;;;21.01;44.52;101812.69;5021765;27;96981;-75
2023/03/20 04:43:20;;;;;;;1.00;0.90;;;;;;;21.02;44.73;101815.28;5022135;27;98318;-76
2023/03/20 04:45:47;;;;;;;1.00;0.80;;;;;;;21.01;44.84;101823.63;5017005;27;96819;-74
2023/03/20 04:48:14;;;;;;;1.83;1.00;;;;;;;20.98;44.55;101819.31;5025539;27;97139;-75
2023/03/20 04:50:41;;;;;;;1.30;0.88;;;;;;;20.99;44.68;101818.31;5024933;27;96827;-75
2023/03/20 04:53:07;;;;;;;1.40;0.90;;;;;;;21.01;44.66;101809.97;5023892;27;99156;-75
2023/03/20 04:55:34;;;;;;;1.30;1.10;;;;;;;21.01;44.66;101809.97;5024321;27;100207;-75
2023/03/20 04:58:01;;;;;;;1.20;0.98;;;;;;;21.00;44.90;101805.50;5005319;27;96876;-75
2023/03/20 05:00:28;;;;;;;1.15;1.00;;;;;;;21.01;44.90;101799.03;5013638;27;96932;-75
2023/03/20 05:02:55;;;;;;;1.15;0.88;;;;;;;20.99;44.59;101806.53;5029732;27;99717;-74
2023/03/20 05:05:22;;;;;;;1.20;0.80;;;;;;;20.99;44.89;101815.59;5027028;27;96713;-75
2023/03/20 05:07:50;;;;;;;1.45;0.80;;;;;;;20.99;44.41;101815.59;5030950;27;96828;-75
2023/03/20 05:10:31;;;;;;;1.10;0.80;;;;;;;21.00;44.61;101809.09;5027933;27;97116;-75
2023/03/20 05:13:04;;;;;;;0.80;0.80;;;;;;;20.98;44.68;101813.88;5020723;27;99495;-75
2023/03/20 05:15:51;;;;;;;1.00;0.85;;;;;;;21.01;44.87;101812.69;5026255;27;99232;-75
2023/03/20 05:18:40;;;;;;;1.05;0.82;;;;;;;21.00;44.58;101811.84;5028920;27;96784;-75
2023/03/20 05:21:30;;;;;;;1.25;0.95;;;;;;;20.99;44.60;101815.59;5036094;27;96757;-75
2023/03/20 05:23:57;;;;;;;1.33;1.10;;;;;;;20.99;44.67;101822.91;5045163;27;97869;-75
2023/03/20 05:26:48;;;;;;;1.10;0.90;;;;;;;20.98;44.74;101826.66;5032008;27;97639;-75
2023/03/20 05:29:38;;;;;;;1.45;0.70;;;;;;;20.99;44.78;101817.44;5026941;27;96785;-75
2023/03/20 05:32:27;;;;;;;1.15;0.90;;;;;;;20.99;44.73;101814.72;5031308;27;97273;-75
2023/03/20 05:35:09;;;;;;;0.93;0.68;;;;;;;20.98;44.82;101813.88;5025784;27;99456;-75
2023/03/20 05:37:48;;;;;;;1.10;0.90;;;;;;;20.99;44.51;101812.84;5027227;27;99553;-75
2023/03/20 05:40:26;;;;;;;1.13;0.88;;;;;;;20.98;44.61;101810.28;5026115;27;96919;-75
2023/03/20 05:43:12;;;;;;;1.00;0.90;;;;;;;20.98;44.50;101813.00;5033221;27;96814;-75
2023/03/20 05:46:01;;;;;;;1.05;0.70;;;;;;;20.99;44.75;101807.38;5029819;27;97659;-75
2023/03/20 05:48:54;;;;;;;1.20;0.90;;;;;;;20.97;44.71;101803.09;5004141;27;96760;-75
2023/03/20 05:51:37;;;;;;;1.40;0.80;;;;;;;20.99;44.63;101812.00;5030190;27;96951;-75
2023/03/20 05:54:30;;;;;;;1.15;0.80;;;;;;;20.98;44.62;101818.47;5044981;27;98292;-75
2023/03/20 05:57:16;;;;;;;1.30;0.90;;;;;;;20.98;44.30;101834.84;5028548;27;99228;-75
2023/03/20 06:00:04;;;;;;;0.70;0.70;;;;;;;20.97;44.50;101834.00;5042498;27;98772;-75
2023/03/20 06:02:57;;;;;;;1.02;0.80;;;;;;;20.97;44.47;101836.72;5029505;27;96794;-75
2023/03/20 06:05:41;;;;;;;1.00;0.88;;;;;;;20.97;44.47;101847.66;5026904;27;96819;-76
2023/03/20 06:08:08;;;;;;;0.80;0.60;;;;;;;20.97;44.52;101844.91;5011560;27;100767;-75
2023/03/20 06:10:34;;;;;;;1.17;0.82;;;;;;;20.98;44.56;101838.44;5030811;27;100753;-75
2023/03/20 06:13:01;;;;;;;2.08;1.05;;;;;;;20.98;44.51;101840.31;5029721;27;96875;-75
2023/03/20 06:15:28;;;;;;;1.00;0.90;;;;;;;20.99;44.68;101842.88;5026420;27;96927;-75
2023/03/20 06:18:03;;;;;;;1.00;0.90;;;;;;;20.99;44.37;101840.16;5022991;27;98599;-75
2023/03/20 06:20:30;;;;;;;1.33;0.90;;;;;;;20.99;44.31;101844.75;5025661;27;98405;-75
2023/03/20 06:23:00;;;;;;;1.13;0.70;;;;;;;20.99;44.22;101844.75;5025595;27;96853;-75
2023/03/20 06:25:26;;;;;;;1.20;0.80;;;;;;;20.99;44.48;101855.69;5031172;27;97197;-75
2023/03/20 06:27:53;;;;;;;1.17;0.60;;;;;;;21.00;44.43;101860.13;5030121;27;99760;-75
2023/03/20 06:30:20;;;;;;;1.20;0.88;;;;;;;20.99;44.30;101856.53;5013704;27;97692;-75
2023/03/20 06:32:48;;;;;;;1.02;0.70;;;;;;;20.99;44.43;101861.16;5027692;27;97319;-74
2023/03/20 06:35:17;;;;;;;1.30;1.00;;;;;;;20.99;44.29;101856.53;5022629;27;97349;-74
2023/03/20 06:37:46;;;;;;;0.75;0.70;;;;;;;21.00;44.31;101861.00;5028994;27;99118;-75
2023/03/20 06:40:18;;;;;;;1.20;0.80;;;;;;;21.00;44.54;101857.41;5029880;27;100662;-76
2023/03/20 06:42:44;;;;;;;1.00;0.75;;;;;;;21.00;44.22;101863.72;5027962;27;96714;-74
2023/03/20 06:45:12;;;;;;;1.52;0.80;;;;;;;21.01;44.25;101859.13;5030447;27;97418;-75
2023/03/20 06:47:50;;;;;;;0.82;0.60;;;;;;;21.01;44.25;101859.13;5038687;27;96846;-74
2023/03/20 06:50:17;;;;;;;0.73;0.60;;;;;;;21.00;44.29;101860.13;5015661;28;98375;-75
2023/03/20 06:52:44;;;;;;;0.68;0.60;;;;;;;21.00;44.24;101868.31;5029135;27;97487;-75
2023/03/20 06:55:37;;;;;;;0.98;0.68;;;;;;;20.99;44.35;101869.34;5035249;27;96848;-75
2023/03/20 06:58:04;;;;;;;1.15;0.93;;;;;;;20.99;44.00;101883.00;5024245;27;96745;-75
2023/03/20 07:00:33;;;;;;;0.77;0.60;;;;;;;21.00;44.10;101871.06;5032296;27;97028;-75
2023/03/20 07:03:03;;;;;;;1.38;0.90;;;;;;;21.00;44.35;101873.78;5026215;27;96930;-75
2023/03/20 07:05:31;;;;;;;1.17;0.70;;;;;;;20.98;44.06;101873.09;5031286;27;97059;-75
2023/03/20 07:07:58;;;;;;;0.75;0.70;;;;;;;20.99;44.04;101875.66;5018684;27;97910;-75
2023/03/20 07:10:26;;;;;;;2.00;0.80;;;;;;;20.99;44.04;101874.81;5017031;27;97958;-75
2023/03/20 07:12:52;;;;;;;1.15;0.85;;;;;;;20.99;44.34;101883.00;5012229;27;96979;-75
2023/03/20 07:15:20;;;;;;;1.33;0.73;;;;;;;20.98;44.10;101881.28;5040471;27;96961;-75
2023/03/20 07:17:47;;;;;;;1.25;0.70;;;;;;;20.97;44.43;101883.16;5034247;27;97531;-75
2023/03/20 07:20:14;;;;;;;1.27;0.68;;;;;;;20.97;44.45;101882.28;5023384;27;99121;-75
2023/03/20 07:22:42;;;;;;;0.80;0.65;;;;;;;20.95;44.26;101887.91;5028032;27;96841;-75
2023/03/20 07:25:40;;;;;;;0.95;0.80;;;;;;;20.94;44.14;101892.50;5020893;27;96795;-78
2023/03/20 07:28:17;;;;;;;1.30;0.85;;;;;;;20.93;44.31;101893.50;5005218;28;100015;-75
2023/03/20 07:30:50;;;;;;;1.98;0.75;;;;;;;20.92;44.41;101894.53;5029893;27;99439;-75
2023/03/20 07:33:17;;;;;;;1.25;0.70;;;;;;;20.91;44.40;101898.25;5020765;28;96953;-75
2023/03/20 07:35:44;;;;;;;1.10;0.80;;;;;;;20.91;44.66;101897.41;5027142;27;97096;-75
2023/03/20 07:38:11;;;;;;;1.77;0.80;;;;;;;20.91;44.58;101898.25;5024461;27;96992;-75
2023/03/20 07:40:48;;;;;;;1.38;0.90;;;;;;;20.91;44.52;101903.72;5004670;28;97455;-76
2023/03/20 07:43:16;;;;;;;1.10;0.70;;;;;;;20.91;44.16;101900.13;5012509;27;96664;-75
2023/03/20 07:46:06;;;;;;;1.15;0.70;;;;;;;20.91;44.61;101901.00;5046818;27;96622;-75
2023/03/20 07:48:35;;;;;;;1.15;0.80;;;;;;;20.91;44.39;101895.53;5012540;28;96745;-76
2023/03/20 07:51:02;;;;;;;1.10;0.70;;;;;;;20.90;44.14;101902.00;5025263;27;97032;-75
2023/03/20 07:53:30;;;;;;;1.48;0.70;;;;;;;20.89;44.29;101894.81;5023550;27;96810;-75
2023/03/20 07:55:58;;;;;;;0.98;0.70;;;;;;;20.90;44.25;101893.81;5011563;28;97319;-75
2023/03/20 07:58:24;;;;;;;1.30;0.80;;;;;;;20.90;44.36;101896.53;5031146;27;96668;-75
2023/03/20 08:00:51;;;;;;;2.20;0.90;;;;;;;20.90;44.14;101896.53;5017156;27;99148;-75
2023/03/20 08:03:18;;;;;;;1.65;0.80;;;;;;;20.90;44.13;101892.97;5041197;27;97121;-76
2023/03/20 08:05:44;;;;;;;0.68;0.65;;;;;;;20.88;44.14;101887.66;5034346;27;96805;-75
2023/03/20 08:08:13;;;;;;;1.35;0.70;;;;;;;20.91;44.22;101889.22;5032242;27;97681;-75
2023/03/20 08:10:40;;;;;;;1.17;0.90;;;;;;;20.90;44.11;101893.81;5014855;28;98814;-76
2023/03/20 08:13:06;;;;;;;1.35;0.75;;;;;;;20.90;44.15;101893.81;5031763;27;96715;-75
2023/03/20 08:15:33;;;;;;;0.95;0.63;;;;;;;20.91;44.20;101894.69;5032811;27;96960;-75
2023/03/20 08:18:00;;;;;;;1.55;0.82;;;;;;;20.90;44.02;101893.81;5031829;27;97864;-75
2023/03/20 08:20:27;;;;;;;1.05;0.70;;;;;;;20.89;44.25;101892.09;5032536;27;96728;-75
2023/03/20 08:22:53;;;;;;;0.98;0.60;;;;;;;20.89;44.30;101897.56;5036935;27;96952;-75
2023/03/20 08:25:20;;;;;;;0.90;0.70;;;;;;;20.90;44.10;101899.28;5044096;27;96782;-75
2023/03/20 08:27:47;;;;;;;1.25;0.60;;;;;;;20.89;44.38;101889.38;5037481;27;98451;-76
2023/03/20 08:30:14;;;;;;;1.65;0.80;;;;;;;20.90;44.15;101895.69;5022167;28;97649;-75
2023/03/20 08:32:41;;;;;;;1.67;0.80;;;;;;;20.89;44.21;101894.81;5037284;27;96808;-76
2023/03/20 08:35:08;;;;;;;0.98;0.73;;;;;;;20.89;44.10;101893.97;5043540;27;97092;-75
2023/03/20 08:37:54;;;;;;;0.85;0.65;;;;;;;20.90;44.00;101896.53;5042543;27;96889;-76
2023/03/20 08:40:21;;;;;;;1.52;0.77;;;;;;;20.89;44.32;101889.38;5049927;27;96689;-75
2023/03/20 08:42:48;;;;;;;1.38;0.80;;;;;;;20.89;43.90;101892.09;5047791;27;96832;-75
2023/03/20 08:45:15;;;;;;;2.08;0.80;;;;;;;20.89;43.98;101897.56;5030813;27;97114;-75
2023/03/20 08:47:42;;;;;;;0.90;0.60;;;;;;;20.89;44.02;101894.81;5043377;27;96775;-75
2023/03/20 08:50:09;;;;;;;1.55;0.80;;;;;;;20.89;44.04;101886.63;5029087;27;96786;-75
2023/03/20 08:52:36;;;;;;;1.25;0.90;;;;;;;20.90;43.95;101887.50;5038799;27;96858;-75
2023/03/20 08:55:03;;;;;;;1.25;0.70;;;;;;;20.90;44.09;101882.91;5034487;27;97314;-75
2023/03/20 08:57:29;;;;;;;0.75;0.52;;;;;;;20.89;44.19;101886.63;5022358;27;97408;-75
2023/03/20 08:59:56;;;;;;;1.58;0.80;;;;;;;20.91;44.17;101887.34;5028618;27;97319;-75
2023/03/20 09:02:22;;;;;;;1.52;0.80;;;;;;;20.91;44.29;101883.75;5046026;27;96775;-75
2023/03/20 09:04:49;;;;;;;1.35;0.70;;;;;;;20.91;44.21;101881.03;5049719;27;97323;-75
2023/03/20 09:07:15;;;;;;;2.35;0.90;;;;;;;20.91;43.73;101878.28;5033215;27;96645;-75
2023/03/20 09:09:42;;;;;;;3.33;0.85;;;;;;;20.90;44.05;101882.03;5034690;27;96642;-75
2023/03/20 09:12:09;;;;;;;1.20;0.80;;;;;;;20.90;44.22;101888.34;5014497;27;96744;-76
2023/03/20 09:14:37;;;;;;;1.73;0.65;;;;;;;20.88;43.93;101882.19;5044556;27;96937;-76
2023/03/20 09:17:04;;;;;;;1.73;0.93;;;;;;;20.89;43.91;101888.50;5043602;27;96792;-76
2023/03/20 09:19:31;;;;;;;1.27;0.80;;;;;;;20.88;44.03;101887.66;5029824;27;97274;-75
2023/03/20 09:21:59;;;;;;;1.10;0.80;;;;;;;20.87;44.25;101891.38;5030531;27;97011;-75
2023/03/20 09:24:28;;;;;;;1.17;0.80;;;;;;;20.86;43.97;101884.22;5048399;27;96737;-76
2023/03/20 09:26:54;;;;;;;2.80;0.70;;;;;;;20.86;43.84;101889.66;5031155;27;97277;-75
2023/03/20 09:29:21;;;;;;;1.88;0.80;;;;;;;20.86;44.16;101883.34;5036560;27;97352;-75
2023/03/20 09:31:47;;;;;;;1.65;0.90;;;;;;;20.87;43.89;101883.19;5024516;28;97199;-75
2023/03/20 09:34:14;;;;;;;1.70;0.85;;;;;;;20.88;44.05;101886.78;5029980;27;96598;-76
2023/03/20 09:36:41;;;;;;;1.27;0.77;;;;;;;20.89;43.95;101894.81;5034815;27;96803;-75
2023/03/20 09:39:07;;;;;;;1.70;0.73;;;;;;;20.88;43.93;101897.72;5043631;27;96738;-77
2023/03/20 09:41:37;;;;;;;1.20;0.70;;;;;;;20.87;43.99;101887.78;5029481;27;96729;-76
2023/03/20 09:44:34;;;;;;;1.20;0.90;;;;;;;20.88;44.12;101897.72;5048673;27;96711;-75
2023/03/20 09:47:07;;;;;;;1.23;0.73;;;;;;;20.90;43.67;101902.00;5042363;27;97267;-75
2023/03/20 09:49:45;;;;;;;0.85;0.60;;;;;;;20.90;44.02;101903.88;5033561;27;97429;-75
2023/03/20 09:53:07;;;;;;;1.75;0.90;;;;;;;20.90;43.70;101907.47;5047575;27;97123;-76
2023/03/20 09:55:36;;;;;;;2.00;0.75;;;;;;;20.91;44.04;101908.31;5010451;27;96603;-76
2023/03/20 09:58:20;;;;;;;1.05;0.80;;;;;;;20.90;43.60;101914.81;5048008;27;98296;-75
2023/03/20 10:00:47;;;;;;;1.33;0.70;;;;;;;20.90;43.59;101899.28;5031364;27;96949;-76
2023/03/20 10:03:26;;;;;;;1.02;0.70;;;;;;;20.91;43.82;101905.59;5046692;27;96808;-75
2023/03/20 10:05:58;;;;;;;1.63;0.70;;;;;;;20.89;44.04;101913.94;5036095;27;96945;-76
2023/03/20 10:08:37;;;;;;;1.27;0.65;;;;;;;20.90;43.86;101915.66;5041925;27;97422;-75
2023/03/20 10:11:07;;;;;;;1.00;0.70;;;;;;;20.91;43.65;101920.13;5042173;27;97935;-75
2023/03/20 10:13:37;;;;;;;1.17;0.85;;;;;;;20.90;43.67;101923.00;5026400;27;97542;-75
2023/03/20 10:16:18;;;;;;;1.10;0.75;;;;;;;20.90;43.89;101917.53;5040593;27;96673;-75
2023/03/20 10:19:06;;;;;;;1.20;0.68;;;;;;;20.90;43.71;101914.81;5044851;27;97117;-75
2023/03/20 10:21:43;;;;;;;1.13;0.70;;;;;;;20.88;43.83;101909.50;5034746;27;100742;-75
2023/03/20 10:24:20;;;;;;;1.20;0.90;;;;;;;20.90;43.82;101910.19;5039379;27;97558;-75
2023/03/20 10:26:51;;;;;;;1.30;0.80;;;;;;;20.90;43.96;101907.47;5041062;27;97651;-74
2023/03/20 10:29:20;;;;;;;2.10;0.80;;;;;;;20.90;43.82;101907.47;5047691;27;96638;-75
2023/03/20 10:31:51;;;;;;;1.52;0.70;;;;;;;20.91;43.65;101902.88;5049005;27;97165;-74
2023/03/20 10:34:25;;;;;;;1.35;0.82;;;;;;;20.91;43.52;101895.53;5047367;27;96963;-75
2023/03/20 10:37:00;;;;;;;1.00;0.80;;;;;;;20.90;43.77;101902.00;5050824;27;96728;-75
2023/03/20 10:40:11;;;;;;;1.23;0.90;;;;;;;20.91;43.66;101902.88;5042102;27;98549;-75
2023/03/20 10:42:42;;;;;;;1.00;0.60;;;;;;;20.89;43.64;101896.69;5038329;27;97297;-78
2023/03/20 10:45:30;;;;;;;1.20;0.75;;;;;;;20.90;44.00;101888.34;5044263;27;96602;-76
2023/03/20 10:48:01;;;;;;;1.40;0.70;;;;;;;20.88;43.85;101893.09;5038943;27;97254;-74
2023/03/20 10:50:34;;;;;;;1.45;0.70;;;;;;;20.88;43.75;101892.25;5047166;27;96842;-75
2023/03/20 10:53:03;;;;;;;1.80;1.00;;;;;;;20.87;44.04;101885.94;5044288;27;96927;-75
2023/03/20 10:55:38;;;;;;;1.20;0.60;;;;;;;20.87;43.99;101883.19;5048125;27;96868;-75
2023/03/20 10:58:18;;;;;;;1.35;0.80;;;;;;;20.87;44.08;101888.66;5038852;27;96872;-75
2023/03/20 11:00:45;;;;;;;1.27;0.95;;;;;;;20.88;43.62;101886.78;5037573;27;97150;-75
2023/03/20 11:03:21;;;;;;;1.35;0.70;;;;;;;20.87;43.62;101891.38;5040895;27;97304;-75
2023/03/20 11:06:04;;;;;;;1.15;0.70;;;;;;;20.86;43.88;101884.22;5023741;27;97103;-75
2023/03/20 11:08:40;;;;;;;1.00;0.70;;;;;;;20.85;43.72;101890.69;5036509;27;96866;-75
2023/03/20 11:11:10;;;;;;;1.57;0.80;;;;;;;20.86;43.59;101888.81;5045172;27;96621;-76
2023/03/20 11:13:43;;;;;;;1.50;0.90;;;;;;;20.86;43.71;101888.81;5025351;27;97411;-75
2023/03/20 11:16:19;;;;;;;1.40;0.80;;;;;;;20.85;43.89;101876.16;5047578;27;96792;-75
2023/03/20 11:18:48;;;;;;;1.10;0.70;;;;;;;20.84;43.54;101882.63;5023993;27;97610;-75
2023/03/20 11:21:28;;;;;;;1.73;0.88;;;;;;;20.78;44.00;101873.16;5031409;27;96759;-75
2023/03/20 11:23:55;;;;;;;0.93;0.70;;;;;;;20.79;43.79;101866.69;5045253;27;97961;-75
2023/03/20 11:26:40;;;;;;;1.10;0.68;;;;;;;20.81;43.99;101870.16;5032039;27;97237;-74
2023/03/20 11:29:20;;;;;;;1.02;0.57;;;;;;;20.81;43.75;101872.88;5043054;27;96854;-76
2023/03/20 11:31:49;;;;;;;2.00;0.90;;;;;;;20.80;43.82;101871.13;5024415;27;98429;-74
2023/03/20 11:34:15;;;;;;;2.08;0.73;;;;;;;20.80;43.64;101860.19;5045131;27;97376;-74
2023/03/20 11:36:54;;;;;;;1.23;0.60;;;;;;;20.82;43.87;101858.22;5042613;27;96775;-75
2023/03/20 11:39:36;;;;;;;1.77;0.70;;;;;;;20.83;44.04;101861.81;5038548;27;97579;-75
2023/03/20 11:42:20;;;;;;;1.25;0.70;;;;;;;20.83;43.89;101859.94;5050410;27;97024;-74
2023/03/20 11:44:57;;;;;;;2.60;0.70;;;;;;;20.81;43.77;101845.56;5050159;27;96906;-75
2023/03/20 11:47:26;;;;;;;2.50;1.00;;;;;;;20.83;44.06;101856.34;5050049;27;96829;-74
2023/03/20 11:49:58;;;;;;;2.17;0.77;;;;;;;20.82;43.83;101860.94;5040612;27;97173;-75
2023/03/20 11:52:34;;;;;;;1.42;0.70;;;;;;;20.79;43.89;101857.63;5029688;27;97462;-74
2023/03/20 11:55:05;;;;;;;1.73;0.70;;;;;;;20.79;44.04;101854.91;5049251;27;96953;-74